This is the latest recevied weather packets stored in our database for station/object N3DXC. If no packets are shown the sender has not sent any weather packets the latest 10 day(s).
| Time | Temp. | Humidity | Pressure | Rain* | Wind** | Luminosity | Snow |
|---|---|---|---|---|---|---|---|
| 1777474508 | 12.78° C | 95% | 1011 hPa | 3.56 mm | - | - | - |
| 1777474207 | 12.78° C | 95% | 1011.2 hPa | 3.05 mm | - | - | - |
| 1777473907 | 12.22° C | 95% | 1011.3 hPa | 2.54 mm | - | - | - |
| 1777473607 | 12.78° C | 95% | 1011.6 hPa | 1.78 mm | - | - | - |
| 1777473308 | 12.78° C | 95% | 1011.6 hPa | 1.27 mm | - | - | - |
| 1777473008 | 12.78° C | 95% | 1011.6 hPa | 0.76 mm | - | - | - |
| 1777472707 | 12.78° C | 95% | 1011.6 hPa | 0.51 mm | - | - | - |
| 1777472408 | 12.78° C | 95% | 1011.4 hPa | 0.51 mm | - | - | - |
| 1777472107 | 12.78° C | 95% | 1011.4 hPa | 0.25 mm | - | - | - |
| 1777471811 | 12.78° C | 95% | 1011.6 hPa | 0 mm | - | - | - |
| 1777471508 | 12.78° C | 95% | 1011.4 hPa | 0 mm | - | - | - |
| 1777471207 | 12.22° C | 95% | 1011.4 hPa | 0 mm | - | - | - |
| 1777470910 | 12.22° C | 95% | 1011.4 hPa | 0 mm | - | - | - |
| 1777470608 | 12.22° C | 95% | 1011.3 hPa | 0 mm | - | - | - |
| 1777470308 | 12.22° C | 95% | 1011.3 hPa | 0 mm | - | - | - |
| 1777470008 | 12.22° C | 95% | 1011.3 hPa | 0 mm | - | - | - |
| 1777469708 | 12.22° C | 95% | 1011.3 hPa | 0 mm | - | - | - |
| 1777469408 | 12.22° C | 95% | 1011.3 hPa | 0 mm | - | - | - |
| 1777469176 | 11.67° C | 95% | 1011.1 hPa | 0 mm | - | - | - |
| 1777469108 | 11.67° C | 95% | 1011.1 hPa | 0 mm | - | - | - |
| 1777468807 | 11.67° C | 95% | 1011.2 hPa | 0 mm | - | - | - |
| 1777468507 | 11.67° C | 95% | 1011.1 hPa | 0 mm | - | - | - |
| 1777468207 | 11.67° C | 95% | 1011.3 hPa | 0 mm | - | - | - |
| 1777467908 | 11.67° C | 95% | 1011.2 hPa | 0 mm | - | - | - |
| 1777467308 | 11.67° C | 95% | 1011.3 hPa | 0 mm | - | - | - |
* Rain latest hour (hover to see other rain measurements)
** Current wind speed in m/s (hover to see current wind gust speed)